Time;durP1;ratioP1;P1;durP2;ratioP2;P2;SDS_P1;SDS_P2;PMS_P1;PMS_P2;Temp;Humidity;BMP_temperature;BMP_pressure;BME280_temperature;BME280_humidity;BME280_pressure;Samples;Min_cycle;Max_cycle;Signal;HPM_P1;HPM_P2
2022/07/11 00:00:05;;;;;;;4.47;2.63;;;16.40;99.90;;;;;;5035643;28;20046;-65
2022/07/11 00:02:30;;;;;;;8.30;2.65;;;16.50;99.90;;;;;;5021873;28;20136;-66
2022/07/11 00:04:56;;;;;;;6.22;2.65;;;16.50;99.90;;;;;;5034430;28;20084;-66
2022/07/11 00:07:21;;;;;;;7.25;2.67;;;16.10;99.90;;;;;;5034871;28;20041;-65
2022/07/11 00:09:47;;;;;;;7.28;2.70;;;16.40;99.90;;;;;;5035462;28;20037;-66
2022/07/11 00:12:13;;;;;;;9.20;2.67;;;16.30;99.90;;;;;;5037417;28;20135;-66
2022/07/11 00:14:39;;;;;;;5.80;2.65;;;16.50;99.90;;;;;;5020511;28;20030;-66
2022/07/11 00:17:07;;;;;;;5.05;2.40;;;16.20;99.90;;;;;;5035159;28;20426;-66
2022/07/11 00:19:33;;;;;;;5.35;2.03;;;16.40;99.90;;;;;;5022253;28;20099;-65
2022/07/11 00:21:59;;;;;;;4.97;2.03;;;16.30;99.90;;;;;;5028859;28;20880;-65
2022/07/11 00:24:24;;;;;;;10.00;2.20;;;16.30;99.90;;;;;;5027542;28;20496;-66
2022/07/11 00:26:50;;;;;;;6.47;2.25;;;16.20;99.90;;;;;;5022574;28;20049;-66
2022/07/11 00:29:16;;;;;;;7.40;2.40;;;16.30;99.90;;;;;;5021267;28;20424;-66
2022/07/11 00:31:42;;;;;;;6.07;2.42;;;16.30;99.90;;;;;;5032160;28;20026;-66
2022/07/11 00:34:07;;;;;;;9.73;2.58;;;16.30;99.90;;;;;;5034660;28;20049;-66
2022/07/11 00:36:33;;;;;;;6.03;2.08;;;16.10;99.90;;;;;;5034698;28;20036;-65
2022/07/11 00:38:59;;;;;;;7.38;2.38;;;16.20;99.90;;;;;;5020373;28;20515;-66
2022/07/11 00:41:25;;;;;;;4.35;2.38;;;16.40;99.90;;;;;;5033539;28;20124;-66
2022/07/11 00:43:56;;;;;;;5.57;2.20;;;16.40;99.90;;;;;;5034513;28;20134;-66
2022/07/11 00:46:22;;;;;;;7.93;2.70;;;16.30;99.90;;;;;;5025110;28;20076;-66
2022/07/11 00:48:48;;;;;;;4.97;2.47;;;16.30;99.90;;;;;;5029832;28;20041;-66
2022/07/11 00:51:15;;;;;;;7.30;2.40;;;16.30;99.90;;;;;;5034534;28;20041;-65
2022/07/11 00:53:42;;;;;;;5.93;2.25;;;16.40;99.90;;;;;;5034605;28;20048;-66
2022/07/11 00:56:09;;;;;;;5.97;2.15;;;16.40;99.90;;;;;;5006952;28;20068;-66
2022/07/11 00:58:36;;;;;;;6.28;3.10;;;16.20;99.90;;;;;;5032860;28;20056;-65
2022/07/11 01:01:02;;;;;;;7.53;3.40;;;16.20;99.90;;;;;;5015757;28;20034;-64
2022/07/11 01:03:28;;;;;;;6.65;2.60;;;16.40;99.90;;;;;;5023422;28;20041;-65
2022/07/11 01:05:53;;;;;;;5.40;2.70;;;16.40;99.90;;;;;;5034025;28;20045;-66
2022/07/11 01:08:19;;;;;;;4.18;2.63;;;16.20;99.90;;;;;;5024609;28;20037;-66
2022/07/11 01:10:45;;;;;;;5.70;2.53;;;16.20;99.90;;;;;;5014170;28;20480;-65
2022/07/11 01:13:10;;;;;;;7.32;2.20;;;16.10;99.90;;;;;;5029498;28;20038;-66
2022/07/11 01:15:36;;;;;;;4.97;2.90;;;16.00;99.90;;;;;;5014394;28;20042;-66
2022/07/11 01:18:03;;;;;;;6.95;2.95;;;16.20;99.90;;;;;;5010872;28;20387;-65
2022/07/11 01:20:28;;;;;;;6.75;2.80;;;16.00;99.90;;;;;;5014402;28;20100;-65
2022/07/11 01:22:57;;;;;;;8.18;2.45;;;16.30;99.90;;;;;;5015112;28;20045;-66
2022/07/11 01:25:32;;;;;;;9.93;3.20;;;16.10;99.90;;;;;;4997648;28;20045;-66
2022/07/11 01:28:06;;;;;;;5.50;2.33;;;16.20;99.90;;;;;;5015415;28;20069;-65
2022/07/11 01:30:32;;;;;;;8.98;2.78;;;15.90;99.90;;;;;;5014414;28;20088;-65
2022/07/11 01:32:59;;;;;;;6.43;2.63;;;16.30;99.90;;;;;;5031534;28;20361;-66
2022/07/11 01:35:26;;;;;;;5.82;2.80;;;16.20;99.90;;;;;;5026893;28;20038;-65
2022/07/11 01:37:51;;;;;;;7.38;2.60;;;16.30;99.90;;;;;;5019924;28;20080;-66
2022/07/11 01:40:17;;;;;;;8.18;2.70;;;16.20;99.90;;;;;;5030448;28;20049;-66
2022/07/11 01:42:43;;;;;;;9.07;3.10;;;16.30;99.90;;;;;;5021907;28;20042;-65
2022/07/11 01:45:10;;;;;;;10.45;3.20;;;16.00;99.90;;;;;;5019436;28;20060;-65
2022/07/11 01:47:36;;;;;;;6.53;2.88;;;16.00;99.90;;;;;;5015073;28;20057;-66
2022/07/11 01:50:03;;;;;;;6.18;2.67;;;16.10;99.90;;;;;;5016889;28;20050;-66
2022/07/11 01:52:28;;;;;;;4.97;2.58;;;16.30;99.90;;;;;;5002444;28;20052;-66
2022/07/11 01:54:54;;;;;;;6.32;2.80;;;16.10;99.90;;;;;;5035168;28;20045;-66
2022/07/11 01:57:20;;;;;;;6.20;2.50;;;16.00;99.90;;;;;;5018508;28;20042;-65
2022/07/11 01:59:46;;;;;;;5.32;2.70;;;16.30;99.90;;;;;;5013981;28;20500;-65
2022/07/11 02:02:12;;;;;;;8.00;2.85;;;16.40;99.90;;;;;;5018874;28;20559;-66
2022/07/11 02:04:37;;;;;;;8.23;2.72;;;16.40;99.90;;;;;;5007900;28;20134;-66
2022/07/11 02:07:03;;;;;;;7.13;1.98;;;16.20;99.90;;;;;;5017586;28;20041;-66
2022/07/11 02:09:29;;;;;;;5.38;2.28;;;15.90;99.90;;;;;;5015114;28;20033;-66
2022/07/11 02:11:54;;;;;;;5.07;2.55;;;16.10;99.90;;;;;;5024385;28;20045;-65
2022/07/11 02:14:21;;;;;;;4.20;2.20;;;16.10;99.90;;;;;;5028269;28;20099;-65
2022/07/11 02:16:47;;;;;;;8.68;3.47;;;16.10;99.90;;;;;;5002576;28;20077;-65
2022/07/11 02:19:13;;;;;;;7.57;3.10;;;15.90;99.90;;;;;;5012780;28;20076;-66
2022/07/11 02:21:39;;;;;;;7.40;2.75;;;16.10;99.90;;;;;;5035392;28;20376;-66
2022/07/11 02:24:04;;;;;;;6.60;2.38;;;16.10;99.90;;;;;;5035198;28;20037;-66
2022/07/11 02:26:30;;;;;;;7.35;2.80;;;15.80;99.90;;;;;;5030105;28;20046;-65
2022/07/11 02:28:56;;;;;;;8.02;2.67;;;16.20;99.90;;;;;;5005070;28;20046;-65
2022/07/11 02:31:22;;;;;;;6.57;2.63;;;16.00;99.90;;;;;;4998508;28;20455;-66
2022/07/11 02:33:47;;;;;;;7.18;2.47;;;16.10;99.90;;;;;;5033671;28;20041;-66
2022/07/11 02:36:13;;;;;;;5.43;2.28;;;16.00;99.90;;;;;;5021868;28;20045;-65
2022/07/11 02:38:39;;;;;;;5.32;2.40;;;16.00;99.90;;;;;;5035507;28;20560;-66
2022/07/11 02:41:05;;;;;;;5.57;2.60;;;16.00;99.90;;;;;;5021731;28;20045;-66
2022/07/11 02:43:30;;;;;;;5.55;2.20;;;15.90;99.90;;;;;;5015749;28;20125;-66
2022/07/11 02:45:56;;;;;;;5.88;2.67;;;15.90;99.90;;;;;;5012671;28;20042;-66
2022/07/11 02:48:21;;;;;;;6.93;2.50;;;15.90;99.90;;;;;;5005455;28;20042;-66
2022/07/11 02:50:47;;;;;;;3.63;2.40;;;16.00;99.90;;;;;;5038788;28;20038;-66
2022/07/11 02:53:13;;;;;;;8.02;2.25;;;16.10;99.90;;;;;;5039141;28;20044;-65
2022/07/11 02:55:39;;;;;;;8.18;3.22;;;16.00;99.90;;;;;;5010991;28;20037;-65
2022/07/11 02:58:05;;;;;;;6.10;2.55;;;16.00;99.90;;;;;;5038268;28;20034;-65
2022/07/11 03:00:30;;;;;;;6.35;2.45;;;15.90;99.90;;;;;;5035600;28;20452;-66
2022/07/11 03:02:56;;;;;;;10.57;3.65;;;16.00;99.90;;;;;;5011337;28;20058;-66
2022/07/11 03:05:21;;;;;;;6.57;2.67;;;16.00;99.90;;;;;;5013755;28;20037;-65
2022/07/11 03:07:47;;;;;;;7.65;3.08;;;16.00;99.90;;;;;;5014189;28;20044;-66
2022/07/11 03:10:13;;;;;;;9.50;3.30;;;16.00;99.90;;;;;;5028943;28;20048;-65
2022/07/11 03:12:39;;;;;;;6.20;2.97;;;16.00;99.90;;;;;;5041568;28;20101;-65
2022/07/11 03:15:05;;;;;;;4.50;2.85;;;15.80;99.90;;;;;;5034850;28;20108;-65
2022/07/11 03:17:31;;;;;;;4.57;3.15;;;15.90;99.90;;;;;;5039140;28;20062;-66
2022/07/11 03:19:57;;;;;;;6.32;3.42;;;15.90;99.90;;;;;;5026848;28;20045;-65
2022/07/11 03:22:23;;;;;;;6.75;3.28;;;15.80;99.90;;;;;;5013331;28;20069;-65
2022/07/11 03:24:50;;;;;;;5.50;2.85;;;15.80;99.90;;;;;;5040571;28;20040;-65
2022/07/11 03:27:16;;;;;;;7.22;2.88;;;15.70;99.90;;;;;;5025737;28;20113;-66
2022/07/11 03:29:42;;;;;;;5.72;3.13;;;17.30;99.90;;;;;;5033440;28;20049;-66
2022/07/11 03:32:08;;;;;;;6.55;3.13;;;15.90;99.90;;;;;;5032747;28;20045;-66
2022/07/11 03:34:34;;;;;;;6.20;3.38;;;15.70;99.90;;;;;;5025229;28;20033;-66
2022/07/11 03:37:00;;;;;;;6.82;2.90;;;15.70;99.90;;;;;;5033728;28;20041;-65
2022/07/11 03:39:26;;;;;;;5.43;2.58;;;17.40;99.90;;;;;;5046399;28;20057;-66
2022/07/11 03:41:51;;;;;;;4.35;2.58;;;16.10;99.90;;;;;;5038414;28;20049;-65
2022/07/11 03:44:17;;;;;;;4.85;2.80;;;15.80;99.90;;;;;;5038485;28;20069;-65
2022/07/11 03:46:42;;;;;;;4.50;2.22;;;15.80;99.90;;;;;;5025020;28;20033;-65
2022/07/11 03:49:08;;;;;;;4.95;2.58;;;15.60;99.90;;;;;;5034452;28;20045;-66
2022/07/11 03:51:34;;;;;;;6.43;2.40;;;16.00;99.90;;;;;;5028587;28;20088;-66
2022/07/11 03:54:00;;;;;;;4.10;1.92;;;16.00;99.90;;;;;;5035761;28;20045;-66
2022/07/11 03:56:26;;;;;;;6.95;2.50;;;16.00;99.90;;;;;;5012853;28;20050;-64
2022/07/11 03:58:52;;;;;;;5.07;2.30;;;16.00;99.90;;;;;;5045338;28;20048;-65
2022/07/11 04:01:19;;;;;;;6.93;2.58;;;15.80;99.90;;;;;;5027456;28;20041;-66
2022/07/11 04:03:45;;;;;;;6.18;2.22;;;15.80;99.90;;;;;;5034412;28;20033;-65
2022/07/11 04:06:11;;;;;;;4.95;2.25;;;17.40;99.90;;;;;;5007578;28;20077;-66
2022/07/11 04:08:37;;;;;;;4.63;2.03;;;15.80;99.90;;;;;;5009572;28;20046;-65
2022/07/11 04:11:02;;;;;;;5.10;2.22;;;15.90;99.90;;;;;;5008606;28;20069;-64
2022/07/11 04:13:30;;;;;;;4.50;2.03;;;15.80;99.90;;;;;;5035995;28;20041;-65
2022/07/11 04:15:56;;;;;;;4.80;2.33;;;16.00;99.90;;;;;;5009493;28;20440;-66
2022/07/11 04:18:21;;;;;;;5.38;2.50;;;16.00;99.90;;;;;;5005092;28;20042;-65
2022/07/11 04:20:49;;;;;;;6.03;2.17;;;15.90;99.90;;;;;;5004160;28;20061;-66
2022/07/11 04:23:15;;;;;;;3.47;1.77;;;15.80;99.90;;;;;;5017266;28;20048;-64
2022/07/11 04:25:41;;;;;;;3.20;1.80;;;;;;;;;;5015722;28;20034;-63
2022/07/11 04:28:06;;;;;;;3.05;2.10;;;15.90;99.90;;;;;;5031627;28;20053;-66
2022/07/11 04:30:33;;;;;;;4.88;1.88;;;15.80;99.90;;;;;;5018924;28;20034;-66
2022/07/11 04:32:59;;;;;;;3.60;1.90;;;16.00;99.90;;;;;;5030094;28;20044;-66
2022/07/11 04:35:26;;;;;;;4.93;1.90;;;15.80;99.90;;;;;;5008364;28;20030;-66
2022/07/11 04:37:52;;;;;;;4.40;1.75;;;16.00;99.90;;;;;;5020794;28;20439;-65
2022/07/11 04:40:18;;;;;;;2.42;1.75;;;16.20;99.90;;;;;;5021507;28;20054;-65
2022/07/11 04:42:43;;;;;;;4.13;1.38;;;16.00;99.90;;;;;;5025494;28;20153;-65
2022/07/11 04:45:09;;;;;;;2.83;1.20;;;16.10;99.90;;;;;;5012914;28;20034;-65
2022/07/11 04:47:35;;;;;;;4.25;1.58;;;16.00;99.90;;;;;;5030788;28;20044;-66
2022/07/11 04:50:01;;;;;;;3.95;1.48;;;15.90;99.90;;;;;;5016000;28;20470;-66
2022/07/11 04:52:26;;;;;;;5.18;1.75;;;16.20;99.90;;;;;;5055091;28;20049;-66
2022/07/11 04:54:53;;;;;;;3.25;1.40;;;15.90;99.90;;;;;;5008432;28;20038;-66
2022/07/11 04:57:18;;;;;;;4.45;1.50;;;16.00;99.90;;;;;;5017917;28;20085;-66
2022/07/11 04:59:44;;;;;;;5.20;1.60;;;16.10;99.90;;;;;;5030149;28;20400;-66
2022/07/11 05:02:10;;;;;;;2.05;1.27;;;16.00;99.90;;;;;;5019744;28;20049;-66
2022/07/11 05:04:36;;;;;;;2.10;1.08;;;15.90;99.90;;;;;;5040400;28;20056;-66
2022/07/11 05:07:01;;;;;;;4.88;1.58;;;16.00;99.90;;;;;;5046652;28;20048;-65
2022/07/11 05:09:27;;;;;;;3.45;1.30;;;16.70;99.90;;;;;;5038171;28;20046;-65
2022/07/11 05:11:52;;;;;;;3.22;1.60;;;16.10;99.90;;;;;;5024840;28;20050;-65
2022/07/11 05:14:18;;;;;;;2.65;1.30;;;16.00;99.90;;;;;;5036761;28;20081;-65
2022/07/11 05:16:43;;;;;;;3.30;1.25;;;16.20;99.90;;;;;;5019882;28;20050;-66
2022/07/11 05:19:09;;;;;;;1.75;1.10;;;16.20;99.90;;;;;;5038298;28;20102;-66
2022/07/11 05:21:34;;;;;;;3.03;1.20;;;16.50;99.90;;;;;;5020165;28;20081;-63
2022/07/11 05:24:00;;;;;;;3.83;1.13;;;16.30;99.90;;;;;;4999026;28;20439;-65
2022/07/11 05:26:26;;;;;;;2.85;1.25;;;16.30;99.90;;;;;;5010117;28;20041;-65
2022/07/11 05:28:51;;;;;;;2.92;1.63;;;16.20;99.90;;;;;;5011762;28;20061;-66
2022/07/11 05:31:17;;;;;;;2.60;1.75;;;16.40;99.90;;;;;;5018762;28;20043;-66
2022/07/11 05:33:42;;;;;;;2.00;1.40;;;16.40;99.90;;;;;;5026115;28;20124;-66
2022/07/11 05:36:08;;;;;;;2.35;0.90;;;16.40;99.90;;;;;;5007843;28;20042;-65
2022/07/11 05:38:34;;;;;;;6.40;1.40;;;16.50;99.90;;;;;;5009720;28;20519;-65
2022/07/11 05:40:59;;;;;;;2.85;1.10;;;16.20;99.90;;;;;;5024114;28;20063;-65
2022/07/11 05:43:25;;;;;;;1.98;0.90;;;16.40;99.90;;;;;;5017733;28;20061;-66
2022/07/11 05:45:51;;;;;;;1.67;1.02;;;16.20;99.90;;;;;;5017259;28;20026;-66
2022/07/11 05:48:16;;;;;;;1.40;0.80;;;16.20;99.90;;;;;;5029132;28;20037;-66
2022/07/11 05:50:43;;;;;;;2.30;0.98;;;16.10;99.90;;;;;;5029395;28;20491;-65
2022/07/11 05:53:10;;;;;;;2.38;0.70;;;16.20;99.90;;;;;;5033790;28;20045;-65
2022/07/11 05:55:36;;;;;;;3.08;0.90;;;16.30;99.90;;;;;;4996770;28;20194;-65
2022/07/11 05:58:02;;;;;;;1.40;0.75;;;16.30;99.90;;;;;;5016687;28;20452;-65
2022/07/11 06:00:28;;;;;;;2.28;0.90;;;16.20;99.90;;;;;;5020537;28;20476;-65
2022/07/11 06:02:53;;;;;;;1.20;0.68;;;16.60;99.90;;;;;;5021797;28;20046;-65
2022/07/11 06:05:19;;;;;;;2.13;0.80;;;16.60;99.90;;;;;;5016852;28;20045;-64
2022/07/11 06:10:29;;;;;;;1.48;0.65;;;16.40;99.90;;;;;;5014711;28;20504;-65
2022/07/11 06:12:55;;;;;;;1.85;0.50;;;16.60;99.90;;;;;;5040048;28;20029;-66
2022/07/11 06:15:20;;;;;;;1.00;0.60;;;16.30;99.90;;;;;;5039863;28;20415;-65
2022/07/11 06:17:46;;;;;;;2.03;0.60;;;14.80;99.90;;;;;;5020077;28;20049;-65
2022/07/11 06:20:12;;;;;;;1.77;0.82;;;16.90;99.90;;;;;;5028774;28;20029;-65
2022/07/11 06:22:38;;;;;;;1.15;0.80;;;16.60;99.90;;;;;;5035513;28;20107;-65
2022/07/11 06:25:04;;;;;;;1.75;0.80;;;16.60;99.90;;;;;;5034699;28;20041;-66
2022/07/11 06:27:29;;;;;;;1.30;0.45;;;16.30;99.90;;;;;;5024289;28;20042;-66
2022/07/11 06:29:55;;;;;;;2.17;0.80;;;16.40;99.90;;;;;;5032901;28;20540;-65
2022/07/11 06:32:21;;;;;;;4.13;0.85;;;16.70;99.90;;;;;;5007166;28;20412;-65
2022/07/11 06:34:46;;;;;;;1.20;0.52;;;16.80;99.90;;;;;;5033125;28;20496;-65
2022/07/11 06:37:12;;;;;;;1.10;0.57;;;16.50;99.90;;;;;;5033826;28;20052;-66
2022/07/11 06:39:37;;;;;;;3.13;1.00;;;16.70;99.90;;;;;;5034452;28;20050;-65
2022/07/11 06:42:03;;;;;;;0.68;0.60;;;16.70;99.90;;;;;;5036816;28;20037;-66
2022/07/11 06:44:28;;;;;;;2.67;0.70;;;16.70;99.90;;;;;;5032830;28;20037;-65
2022/07/11 06:46:54;;;;;;;1.60;0.50;;;17.00;99.90;;;;;;5032072;28;20040;-65
2022/07/11 06:49:20;;;;;;;1.27;0.60;;;17.10;99.90;;;;;;5039338;28;20076;-66
2022/07/11 06:51:45;;;;;;;0.75;0.52;;;17.00;99.90;;;;;;5039741;28;20044;-66
2022/07/11 06:54:11;;;;;;;1.25;0.60;;;16.60;99.90;;;;;;5027746;28;20045;-65
2022/07/11 06:56:36;;;;;;;0.70;0.60;;;17.10;99.90;;;;;;5020549;28;20045;-65
2022/07/11 06:59:02;;;;;;;1.95;0.50;;;17.20;99.90;;;;;;5009555;28;20472;-66
2022/07/11 07:01:27;;;;;;;2.45;0.60;;;17.10;99.90;;;;;;5017157;28;20551;-64
2022/07/11 07:03:53;;;;;;;2.72;0.57;;;17.20;99.90;;;;;;5001628;28;20048;-65
2022/07/11 07:06:19;;;;;;;1.50;0.50;;;17.10;99.90;;;;;;5015455;28;20122;-66
2022/07/11 07:08:45;;;;;;;0.75;0.38;;;17.00;99.90;;;;;;5008164;28;20405;-65
2022/07/11 07:11:11;;;;;;;1.15;0.43;;;17.70;99.90;;;;;;5053066;28;20471;-65
2022/07/11 07:13:37;;;;;;;1.95;0.45;;;16.90;99.90;;;;;;5039619;28;20045;-65
2022/07/11 07:16:02;;;;;;;0.88;0.32;;;17.00;99.90;;;;;;5037759;28;20526;-64
2022/07/11 07:18:28;;;;;;;1.27;0.73;;;17.10;99.90;;;;;;5039219;28;20042;-65
2022/07/11 07:20:54;;;;;;;1.00;0.60;;;17.00;99.90;;;;;;5011592;28;20489;-65
2022/07/11 07:23:20;;;;;;;0.80;0.40;;;17.00;99.90;;;;;;5037331;28;20124;-65
2022/07/11 07:25:45;;;;;;;1.38;0.50;;;16.90;99.90;;;;;;5025076;28;20049;-65
2022/07/11 07:28:11;;;;;;;1.00;0.40;;;17.30;99.90;;;;;;5043645;28;20025;-65
2022/07/11 07:30:36;;;;;;;0.52;0.40;;;17.10;99.90;;;;;;5033752;28;20105;-66
2022/07/11 07:33:02;;;;;;;1.00;0.50;;;17.10;99.90;;;;;;5028792;28;20484;-62
2022/07/11 07:35:28;;;;;;;0.95;0.40;;;17.30;99.90;;;;;;5017753;28;20116;-66
2022/07/11 07:37:54;;;;;;;0.73;0.30;;;17.10;99.90;;;;;;5036410;28;20038;-66
2022/07/11 07:40:20;;;;;;;0.60;0.30;;;17.30;99.90;;;;;;5036271;28;20569;-66
2022/07/11 07:42:45;;;;;;;0.63;0.35;;;17.00;99.90;;;;;;5009495;28;20109;-65
2022/07/11 07:45:11;;;;;;;1.00;0.35;;;17.20;99.90;;;;;;5021848;28;20037;-65
2022/07/11 07:47:37;;;;;;;0.50;0.40;;;17.10;99.90;;;;;;5033638;28;20041;-65
2022/07/11 07:50:05;;;;;;;0.95;0.50;;;17.10;99.90;;;;;;5015697;28;20069;-65
2022/07/11 07:52:30;;;;;;;3.75;0.60;;;17.10;99.90;;;;;;5015398;28;20508;-66
2022/07/11 07:54:56;;;;;;;1.05;0.52;;;17.20;99.90;;;;;;5023371;28;20042;-65
2022/07/11 07:57:21;;;;;;;0.80;0.50;;;17.40;99.90;;;;;;5009379;28;20097;-66
2022/07/11 07:59:47;;;;;;;3.10;0.43;;;17.30;99.90;;;;;;5015592;28;20042;-65
2022/07/11 08:02:12;;;;;;;1.20;0.40;;;17.40;99.90;;;;;;5013167;28;20101;-65
2022/07/11 08:04:38;;;;;;;1.70;0.60;;;17.50;99.90;;;;;;5005129;28;20041;-65
2022/07/11 08:07:04;;;;;;;2.00;0.63;;;17.40;99.90;;;;;;5017485;28;20065;-65
2022/07/11 08:09:29;;;;;;;1.83;0.63;;;17.60;99.90;;;;;;4998640;28;20105;-65
2022/07/11 08:11:55;;;;;;;1.25;0.50;;;17.70;99.90;;;;;;5026840;28;20042;-66
2022/07/11 08:14:22;;;;;;;1.10;0.50;;;17.50;99.90;;;;;;5008349;28;20092;-66
2022/07/11 08:16:48;;;;;;;1.15;0.50;;;17.90;99.90;;;;;;5028478;28;20044;-65
2022/07/11 08:19:14;;;;;;;3.03;0.40;;;17.80;99.90;;;;;;5033209;28;20050;-65
2022/07/11 08:21:39;;;;;;;2.45;0.40;;;17.70;99.90;;;;;;5029083;28;20097;-66
2022/07/11 08:24:05;;;;;;;0.82;0.40;;;17.90;99.90;;;;;;5035663;28;20140;-65
2022/07/11 08:26:32;;;;;;;1.00;0.35;;;18.00;99.90;;;;;;5034324;28;20045;-65
2022/07/11 08:28:57;;;;;;;2.15;0.40;;;18.00;99.90;;;;;;5012003;28;20460;-66
2022/07/11 08:31:24;;;;;;;1.52;0.40;;;18.10;99.90;;;;;;5023856;28;20053;-64
2022/07/11 08:33:50;;;;;;;1.70;0.40;;;18.10;99.90;;;;;;5020624;28;20475;-66
2022/07/11 08:36:16;;;;;;;2.22;0.50;;;18.00;99.90;;;;;;5021318;28;20038;-66
2022/07/11 08:38:46;;;;;;;1.15;0.30;;;18.10;99.90;;;;;;5015472;28;20061;-65
2022/07/11 08:41:16;;;;;;;5.88;0.40;;;18.00;99.90;;;;;;5002615;28;20129;-65
2022/07/11 08:43:42;;;;;;;1.45;0.50;;;18.20;99.90;;;;;;5026384;28;20100;-65
2022/07/11 08:46:13;;;;;;;0.40;0.30;;;17.90;99.90;;;;;;5024009;28;20405;-65
2022/07/11 08:48:42;;;;;;;0.70;0.30;;;17.90;99.90;;;;;;5035417;28;20038;-66
2022/07/11 08:51:08;;;;;;;0.90;0.50;;;17.70;99.90;;;;;;5022377;28;20041;-64
2022/07/11 08:53:42;;;;;;;1.20;0.40;;;17.90;99.90;;;;;;5020795;28;20041;-65
2022/07/11 08:56:17;;;;;;;0.70;0.30;;;17.90;99.90;;;;;;5025388;28;20052;-66
2022/07/11 08:58:47;;;;;;;4.93;0.40;;;18.00;99.90;;;;;;5008026;28;20033;-65
2022/07/11 09:01:16;;;;;;;3.50;0.60;;;18.10;99.90;;;;;;5025110;28;20077;-66
2022/07/11 09:03:42;;;;;;;0.43;0.30;;;18.20;99.90;;;;;;5012228;28;20045;-65
2022/07/11 09:06:08;;;;;;;1.63;0.30;;;18.40;99.90;;;;;;4997394;28;20167;-66
2022/07/11 09:08:34;;;;;;;1.30;0.40;;;18.30;99.90;;;;;;5010690;28;20037;-65
2022/07/11 09:11:00;;;;;;;2.42;0.43;;;18.40;99.90;;;;;;5025023;28;20114;-63
2022/07/11 09:13:30;;;;;;;2.15;1.23;;;18.60;99.90;;;;;;4995261;28;20046;-65
2022/07/11 09:16:02;;;;;;;0.40;0.30;;;18.40;99.90;;;;;;5024223;28;20588;-66
2022/07/11 09:18:31;;;;;;;0.50;0.30;;;18.30;99.90;;;;;;5013238;28;20038;-65
2022/07/11 09:26:30;;;;;;;0.35;0.22;;;18.50;99.90;;;;;;5011877;28;20492;-65
2022/07/11 09:29:20;;;;;;;0.40;0.30;;;18.30;99.90;;;;;;5013074;28;20042;-65
2022/07/11 09:31:47;;;;;;;0.82;0.63;;;18.10;99.90;;;;;;5000774;28;20045;-65
2022/07/11 09:34:17;;;;;;;1.15;0.30;;;18.10;99.90;;;;;;5013070;28;20045;-65
2022/07/11 09:36:44;;;;;;;0.32;0.28;;;18.10;99.90;;;;;;5014732;28;20034;-66
2022/07/11 09:39:15;;;;;;;0.55;0.25;;;18.10;99.90;;;;;;5013072;28;20057;-66
2022/07/11 09:41:41;;;;;;;0.65;0.22;;;18.30;99.90;;;;;;5015853;28;20082;-66
2022/07/11 09:44:12;;;;;;;1.20;0.30;;;18.10;99.90;;;;;;5015552;28;20056;-66
2022/07/11 09:46:39;;;;;;;0.60;0.30;;;18.20;99.90;;;;;;5013610;28;20065;-65
2022/07/11 09:49:06;;;;;;;1.55;0.20;;;18.50;99.90;;;;;;5014161;28;20076;-66
2022/07/11 09:51:34;;;;;;;1.15;0.20;;;18.50;99.90;;;;;;5012590;28;20084;-66
2022/07/11 09:54:00;;;;;;;0.20;0.20;;;18.30;99.90;;;;;;5014215;28;20042;-65
2022/07/11 09:56:33;;;;;;;2.30;0.40;;;18.50;99.90;;;;;;5014218;28;20038;-66
2022/07/11 09:59:00;;;;;;;0.98;0.25;;;18.50;99.90;;;;;;5001617;28;20045;-65
2022/07/11 10:01:27;;;;;;;1.45;0.57;;;18.30;99.90;;;;;;5014376;28;20046;-65
2022/07/11 10:03:53;;;;;;;0.95;0.70;;;18.40;99.90;;;;;;5002721;28;20053;-66
2022/07/11 10:06:18;;;;;;;1.73;0.40;;;18.50;99.90;;;;;;5034349;28;20033;-66
2022/07/11 10:08:44;;;;;;;0.30;0.20;;;18.30;99.90;;;;;;5019365;28;20044;-66
2022/07/11 10:11:11;;;;;;;0.82;0.40;;;18.50;99.90;;;;;;5034842;28;20026;-65
2022/07/11 10:13:38;;;;;;;0.73;0.30;;;18.50;99.90;;;;;;5038047;28;20384;-65
2022/07/11 10:16:13;;;;;;;0.75;0.22;;;18.50;99.90;;;;;;5000151;28;20042;-65
2022/07/11 10:19:11;;;;;;;3.80;0.60;;;18.60;99.90;;;;;;4997646;28;20042;-66
2022/07/11 10:21:56;;;;;;;0.50;0.30;;;18.60;99.90;;;;;;5015683;28;20056;-65
2022/07/11 10:24:39;;;;;;;0.30;0.30;;;18.90;99.90;;;;;;5010600;28;20056;-65
2022/07/11 10:27:41;;;;;;;0.57;0.40;;;18.80;99.90;;;;;;5019682;28;20477;-66
2022/07/11 10:30:07;;;;;;;0.40;0.30;;;18.70;99.90;;;;;;5015864;28;20050;-66
2022/07/11 10:33:00;;;;;;;0.20;0.20;;;19.10;99.90;;;;;;5017352;28;20045;-65
2022/07/11 10:35:29;;;;;;;1.73;0.30;;;18.90;99.90;;;;;;4999607;28;20037;-66
2022/07/11 10:37:54;;;;;;;1.00;0.30;;;18.80;99.90;;;;;;5016671;28;20037;-66
2022/07/11 10:40:49;;;;;;;0.40;0.30;;;18.90;99.90;;;;;;5015154;28;20527;-66
2022/07/11 10:43:21;;;;;;;0.25;0.22;;;19.10;99.90;;;;;;5014578;28;20566;-66
2022/07/11 10:46:04;;;;;;;0.28;0.20;;;18.90;99.90;;;;;;5016890;28;20085;-66
2022/07/11 10:48:32;;;;;;;0.30;0.22;;;19.20;99.90;;;;;;5014845;28;20041;-66
2022/07/11 10:51:11;;;;;;;0.88;0.30;;;19.20;99.90;;;;;;5014942;28;20476;-65
2022/07/11 10:53:45;;;;;;;0.32;0.32;;;19.10;99.90;;;;;;5015697;28;20061;-65
2022/07/11 10:56:27;;;;;;;1.75;0.30;;;18.90;99.90;;;;;;5016463;28;20091;-66
2022/07/11 10:59:09;;;;;;;0.30;0.30;;;18.80;99.90;;;;;;5004394;28;20502;-65
2022/07/11 11:01:34;;;;;;;2.30;0.40;;;19.10;99.90;;;;;;5017501;28;20042;-65
2022/07/11 11:04:37;;;;;;;0.43;0.30;;;19.10;99.90;;;;;;4999246;28;20042;-65
2022/07/11 11:07:03;;;;;;;0.50;0.30;;;19.10;99.90;;;;;;5025688;28;20068;-65
2022/07/11 11:09:38;;;;;;;0.35;0.30;;;19.00;99.90;;;;;;5001027;28;20042;-65
2022/07/11 11:12:04;;;;;;;2.40;0.32;;;19.20;99.90;;;;;;5031425;28;20095;-64
2022/07/11 11:14:30;;;;;;;1.10;0.30;;;19.20;99.90;;;;;;5038131;28;20427;-66
2022/07/11 11:17:35;;;;;;;0.93;0.30;;;19.20;99.90;;;;;;5036638;28;20041;-66
2022/07/11 11:20:01;;;;;;;1.02;0.22;;;19.00;99.90;;;;;;5017329;28;20081;-65
2022/07/11 11:22:28;;;;;;;0.93;0.30;;;19.20;99.90;;;;;;4996908;28;20043;-66
2022/07/11 11:24:56;;;;;;;0.93;0.20;;;19.30;99.90;;;;;;4997843;28;20038;-65
2022/07/11 11:27:23;;;;;;;1.30;0.40;;;19.20;99.90;;;;;;5027380;28;20437;-66
2022/07/11 11:29:53;;;;;;;1.65;0.30;;;19.30;99.90;;;;;;5026974;28;20488;-66
2022/07/11 11:32:21;;;;;;;0.68;0.40;;;19.50;99.90;;;;;;5019229;28;20123;-65
2022/07/11 11:34:47;;;;;;;2.25;0.95;;;19.20;99.90;;;;;;5024568;28;20038;-65
2022/07/11 11:37:16;;;;;;;0.45;0.20;;;19.20;99.90;;;;;;4995159;28;20084;-66
2022/07/11 11:39:41;;;;;;;0.40;0.30;;;19.30;99.90;;;;;;5003108;28;20052;-65
2022/07/11 11:42:11;;;;;;;1.35;0.40;;;19.20;99.90;;;;;;5018146;28;20042;-65
2022/07/11 11:44:51;;;;;;;2.05;0.60;;;19.30;99.90;;;;;;4997941;28;20050;-65
2022/07/11 11:47:17;;;;;;;1.65;0.38;;;19.30;99.90;;;;;;5024124;28;20042;-65
2022/07/11 11:49:44;;;;;;;0.60;0.30;;;19.50;99.90;;;;;;5022281;28;20092;-66
2022/07/11 11:52:10;;;;;;;1.05;0.20;;;19.40;99.90;;;;;;5033811;28;20500;-66
2022/07/11 11:54:36;;;;;;;0.40;0.20;;;19.40;99.90;;;;;;5036605;28;20565;-65
2022/07/11 11:57:11;;;;;;;0.57;0.40;;;19.60;99.90;;;;;;5015878;28;20038;-66
2022/07/11 11:59:38;;;;;;;0.40;0.30;;;19.60;99.90;;;;;;5027372;28;20869;-65
2022/07/11 12:02:04;;;;;;;0.50;0.22;;;19.40;99.90;;;;;;5009975;28;20042;-65
2022/07/11 12:04:32;;;;;;;0.63;0.45;;;19.70;99.90;;;;;;5003560;28;20084;-65
2022/07/11 12:06:57;;;;;;;1.10;0.30;;;19.50;99.90;;;;;;5015773;28;20100;-65
2022/07/11 12:14:51;;;;;;;0.93;0.37;;;19.60;99.90;;;;;;5026202;28;20100;-66
2022/07/11 12:17:24;;;;;;;1.40;0.43;;;19.50;99.90;;;;;;5017914;28;20420;-65
2022/07/11 12:19:49;;;;;;;0.60;0.35;;;19.80;99.90;;;;;;5033779;28;20067;-66
2022/07/11 12:22:15;;;;;;;1.13;0.20;;;19.40;99.90;;;;;;5035021;28;20136;-66
2022/07/11 12:24:49;;;;;;;1.92;0.32;;;19.80;99.90;;;;;;5040193;28;20501;-65
2022/07/11 12:27:23;;;;;;;0.63;0.20;;;19.70;99.90;;;;;;5023124;28;20045;-65
2022/07/11 12:29:51;;;;;;;0.67;0.30;;;19.80;99.90;;;;;;5036230;28;20041;-66
2022/07/11 12:32:22;;;;;;;2.30;0.40;;;19.70;99.90;;;;;;5038428;28;20092;-65
2022/07/11 12:34:49;;;;;;;1.20;0.60;;;19.80;99.90;;;;;;5014646;28;20060;-65
2022/07/11 12:37:17;;;;;;;0.85;0.30;;;20.00;99.90;;;;;;5025783;28;20045;-65
2022/07/11 12:39:51;;;;;;;0.30;0.20;;;19.80;99.90;;;;;;5038633;28;20060;-65
2022/07/11 12:42:23;;;;;;;1.02;0.38;;;19.90;99.90;;;;;;5013311;28;20044;-66
2022/07/11 12:45:11;;;;;;;0.50;0.30;;;20.00;99.90;;;;;;4999646;28;20038;-65
2022/07/11 12:47:42;;;;;;;1.10;0.68;;;19.90;99.90;;;;;;5026531;28;20590;-65
2022/07/11 12:50:14;;;;;;;0.73;0.32;;;20.00;99.90;;;;;;5004906;28;20120;-66
2022/07/11 12:52:41;;;;;;;4.10;0.63;;;20.00;99.90;;;;;;5034969;28;20046;-65
2022/07/11 12:55:11;;;;;;;1.02;0.30;;;20.10;99.90;;;;;;5031065;28;20042;-66
2022/07/11 12:57:38;;;;;;;0.30;0.20;;;20.00;99.90;;;;;;5003674;28;20038;-66
2022/07/11 13:00:16;;;;;;;2.05;0.35;;;20.10;99.90;;;;;;5027134;28;20088;-64
2022/07/11 13:02:49;;;;;;;2.38;0.30;;;20.00;99.90;;;;;;4994254;28;20082;-66